sensor_id;sensor_type;location;lat;lon;timestamp;temperature;humidity
22813;DHT22;11573;51.334;3.244;2022-07-29T00:00:13;18.80;99.90
22813;DHT22;11573;51.334;3.244;2022-07-29T00:02:40;18.70;99.90
22813;DHT22;11573;51.334;3.244;2022-07-29T00:05:08;18.70;99.90
22813;DHT22;11573;51.334;3.244;2022-07-29T00:07:35;18.60;99.90
22813;DHT22;11573;51.334;3.244;2022-07-29T00:10:03;18.60;99.90
22813;DHT22;11573;51.334;3.244;2022-07-29T00:12:30;18.60;99.90
22813;DHT22;11573;51.334;3.244;2022-07-29T00:14:58;18.50;99.90
22813;DHT22;11573;51.334;3.244;2022-07-29T00:17:25;18.50;99.90
22813;DHT22;11573;51.334;3.244;2022-07-29T00:19:52;18.40;99.90
22813;DHT22;11573;51.334;3.244;2022-07-29T00:22:20;18.40;99.90
22813;DHT22;11573;51.334;3.244;2022-07-29T00:24:48;18.40;99.90
22813;DHT22;11573;51.334;3.244;2022-07-29T00:27:16;18.30;99.90
22813;DHT22;11573;51.334;3.244;2022-07-29T00:29:43;18.20;99.90
22813;DHT22;11573;51.334;3.244;2022-07-29T00:32:10;18.20;99.90
22813;DHT22;11573;51.334;3.244;2022-07-29T00:34:37;18.10;99.90
22813;DHT22;11573;51.334;3.244;2022-07-29T00:37:23;18.10;99.90
22813;DHT22;11573;51.334;3.244;2022-07-29T00:39:50;18.10;99.90
22813;DHT22;11573;51.334;3.244;2022-07-29T00:42:17;18.00;99.90
22813;DHT22;11573;51.334;3.244;2022-07-29T00:44:44;17.90;99.90
22813;DHT22;11573;51.334;3.244;2022-07-29T00:47:11;17.90;99.90
22813;DHT22;11573;51.334;3.244;2022-07-29T00:49:40;17.90;99.90
22813;DHT22;11573;51.334;3.244;2022-07-29T00:52:08;17.90;99.90
22813;DHT22;11573;51.334;3.244;2022-07-29T00:54:36;17.80;99.90
22813;DHT22;11573;51.334;3.244;2022-07-29T00:57:10;17.80;99.90
22813;DHT22;11573;51.334;3.244;2022-07-29T00:59:39;17.80;99.90
22813;DHT22;11573;51.334;3.244;2022-07-29T01:02:06;17.90;99.90
22813;DHT22;11573;51.334;3.244;2022-07-29T01:04:33;17.80;99.90
22813;DHT22;11573;51.334;3.244;2022-07-29T01:07:04;17.80;99.90
22813;DHT22;11573;51.334;3.244;2022-07-29T01:09:32;17.70;99.90
22813;DHT22;11573;51.334;3.244;2022-07-29T01:12:15;17.70;99.90
22813;DHT22;11573;51.334;3.244;2022-07-29T01:14:45;17.70;99.90
22813;DHT22;11573;51.334;3.244;2022-07-29T01:17:17;17.60;99.90
22813;DHT22;11573;51.334;3.244;2022-07-29T01:30:29;17.50;99.90
22813;DHT22;11573;51.334;3.244;2022-07-29T01:33:01;17.50;99.90
22813;DHT22;11573;51.334;3.244;2022-07-29T01:35:34;17.40;99.90
22813;DHT22;11573;51.334;3.244;2022-07-29T01:38:29;17.40;99.90
22813;DHT22;11573;51.334;3.244;2022-07-29T01:41:05;17.40;99.90
22813;DHT22;11573;51.334;3.244;2022-07-29T01:43:59;17.30;99.90
22813;DHT22;11573;51.334;3.244;2022-07-29T01:46:34;17.30;99.90
22813;DHT22;11573;51.334;3.244;2022-07-29T01:49:11;17.20;99.90
22813;DHT22;11573;51.334;3.244;2022-07-29T01:51:50;17.20;99.90
22813;DHT22;11573;51.334;3.244;2022-07-29T01:54:29;17.20;99.90
22813;DHT22;11573;51.334;3.244;2022-07-29T01:56:58;17.10;99.90
22813;DHT22;11573;51.334;3.244;2022-07-29T01:59:26;17.10;99.90
22813;DHT22;11573;51.334;3.244;2022-07-29T02:01:55;17.00;99.90
22813;DHT22;11573;51.334;3.244;2022-07-29T02:04:26;17.00;99.90
22813;DHT22;11573;51.334;3.244;2022-07-29T02:07:00;17.00;99.90
22813;DHT22;11573;51.334;3.244;2022-07-29T02:09:29;17.00;99.90
22813;DHT22;11573;51.334;3.244;2022-07-29T02:11:59;17.00;99.90
22813;DHT22;11573;51.334;3.244;2022-07-29T02:14:31;16.90;99.90
22813;DHT22;11573;51.334;3.244;2022-07-29T02:17:00;16.90;99.90
22813;DHT22;11573;51.334;3.244;2022-07-29T02:19:31;16.90;99.90
22813;DHT22;11573;51.334;3.244;2022-07-29T02:22:00;16.80;99.90
22813;DHT22;11573;51.334;3.244;2022-07-29T02:24:28;16.70;99.90
22813;DHT22;11573;51.334;3.244;2022-07-29T02:26:58;16.80;99.90
22813;DHT22;11573;51.334;3.244;2022-07-29T02:29:27;16.70;99.90
22813;DHT22;11573;51.334;3.244;2022-07-29T02:31:55;16.70;99.90
22813;DHT22;11573;51.334;3.244;2022-07-29T02:34:24;16.50;99.90
22813;DHT22;11573;51.334;3.244;2022-07-29T02:36:52;16.50;99.90
22813;DHT22;11573;51.334;3.244;2022-07-29T02:39:21;16.50;99.90
22813;DHT22;11573;51.334;3.244;2022-07-29T02:41:57;16.50;99.90
22813;DHT22;11573;51.334;3.244;2022-07-29T02:44:26;16.60;99.90
22813;DHT22;11573;51.334;3.244;2022-07-29T02:47:19;16.50;99.90
22813;DHT22;11573;51.334;3.244;2022-07-29T02:49:54;16.40;99.90
22813;DHT22;11573;51.334;3.244;2022-07-29T02:52:30;16.40;99.90
22813;DHT22;11573;51.334;3.244;2022-07-29T02:55:02;16.30;99.90
22813;DHT22;11573;51.334;3.244;2022-07-29T03:00:53;16.10;99.90
22813;DHT22;11573;51.334;3.244;2022-07-29T03:03:22;16.10;99.90
22813;DHT22;11573;51.334;3.244;2022-07-29T03:05:55;16.00;99.90
22813;DHT22;11573;51.334;3.244;2022-07-29T03:08:23;15.90;99.90
22813;DHT22;11573;51.334;3.244;2022-07-29T03:10:51;15.80;99.90
22813;DHT22;11573;51.334;3.244;2022-07-29T03:13:19;15.80;99.90
22813;DHT22;11573;51.334;3.244;2022-07-29T03:15:47;15.90;99.90
22813;DHT22;11573;51.334;3.244;2022-07-29T03:18:15;15.90;99.90
22813;DHT22;11573;51.334;3.244;2022-07-29T03:20:42;15.90;99.90
22813;DHT22;11573;51.334;3.244;2022-07-29T03:23:09;15.90;99.90
22813;DHT22;11573;51.334;3.244;2022-07-29T03:25:36;15.80;99.90
22813;DHT22;11573;51.334;3.244;2022-07-29T03:28:03;15.70;99.90
22813;DHT22;11573;51.334;3.244;2022-07-29T03:30:30;15.60;99.90
22813;DHT22;11573;51.334;3.244;2022-07-29T03:32:57;15.50;99.90
22813;DHT22;11573;51.334;3.244;2022-07-29T03:35:24;15.40;99.90
22813;DHT22;11573;51.334;3.244;2022-07-29T03:37:51;15.30;99.90
22813;DHT22;11573;51.334;3.244;2022-07-29T03:40:26;15.20;99.90
22813;DHT22;11573;51.334;3.244;2022-07-29T03:42:55;15.10;99.90
22813;DHT22;11573;51.334;3.244;2022-07-29T03:45:23;15.00;99.90
22813;DHT22;11573;51.334;3.244;2022-07-29T03:47:55;15.00;99.90
22813;DHT22;11573;51.334;3.244;2022-07-29T03:50:28;14.90;99.90
22813;DHT22;11573;51.334;3.244;2022-07-29T03:52:57;14.90;99.90
22813;DHT22;11573;51.334;3.244;2022-07-29T03:55:25;14.80;99.90
22813;DHT22;11573;51.334;3.244;2022-07-29T03:57:52;14.90;99.90
22813;DHT22;11573;51.334;3.244;2022-07-29T04:00:19;14.80;99.90
22813;DHT22;11573;51.334;3.244;2022-07-29T04:02:46;14.80;99.90
22813;DHT22;11573;51.334;3.244;2022-07-29T04:05:15;14.80;99.90
22813;DHT22;11573;51.334;3.244;2022-07-29T04:07:47;14.70;99.90
22813;DHT22;11573;51.334;3.244;2022-07-29T04:10:15;14.70;99.90
22813;DHT22;11573;51.334;3.244;2022-07-29T04:12:56;14.70;99.90
22813;DHT22;11573;51.334;3.244;2022-07-29T04:15:23;14.70;99.90
22813;DHT22;11573;51.334;3.244;2022-07-29T04:17:50;14.60;99.90
22813;DHT22;11573;51.334;3.244;2022-07-29T04:20:16;14.60;99.90
22813;DHT22;11573;51.334;3.244;2022-07-29T04:22:44;14.60;99.90
22813;DHT22;11573;51.334;3.244;2022-07-29T04:25:10;14.70;99.90
22813;DHT22;11573;51.334;3.244;2022-07-29T04:27:37;14.70;99.90
22813;DHT22;11573;51.334;3.244;2022-07-29T04:30:24;14.70;99.90
22813;DHT22;11573;51.334;3.244;2022-07-29T04:32:51;14.70;99.90
22813;DHT22;11573;51.334;3.244;2022-07-29T04:35:19;14.80;99.90
22813;DHT22;11573;51.334;3.244;2022-07-29T04:37:46;14.90;99.90
22813;DHT22;11573;51.334;3.244;2022-07-29T04:40:13;15.30;99.90
22813;DHT22;11573;51.334;3.244;2022-07-29T04:42:41;15.80;99.90
22813;DHT22;11573;51.334;3.244;2022-07-29T04:45:13;16.30;99.90
22813;DHT22;11573;51.334;3.244;2022-07-29T04:47:42;16.40;99.90
22813;DHT22;11573;51.334;3.244;2022-07-29T04:50:09;16.30;99.90
22813;DHT22;11573;51.334;3.244;2022-07-29T04:52:36;16.50;99.90
22813;DHT22;11573;51.334;3.244;2022-07-29T04:55:04;17.10;99.90
22813;DHT22;11573;51.334;3.244;2022-07-29T04:57:32;17.90;99.90
22813;DHT22;11573;51.334;3.244;2022-07-29T04:59:59;18.50;99.90
22813;DHT22;11573;51.334;3.244;2022-07-29T05:02:26;18.70;99.90
22813;DHT22;11573;51.334;3.244;2022-07-29T05:04:53;19.00;99.90
22813;DHT22;11573;51.334;3.244;2022-07-29T05:07:20;19.10;99.90
22813;DHT22;11573;51.334;3.244;2022-07-29T05:09:47;19.50;99.90
22813;DHT22;11573;51.334;3.244;2022-07-29T05:12:14;19.70;99.90
22813;DHT22;11573;51.334;3.244;2022-07-29T05:14:41;19.60;99.90
22813;DHT22;11573;51.334;3.244;2022-07-29T05:17:08;19.30;99.90
22813;DHT22;11573;51.334;3.244;2022-07-29T05:19:35;19.10;99.90
22813;DHT22;11573;51.334;3.244;2022-07-29T05:22:05;18.90;99.90
22813;DHT22;11573;51.334;3.244;2022-07-29T05:24:32;18.90;99.90
22813;DHT22;11573;51.334;3.244;2022-07-29T05:26:59;19.00;99.90
22813;DHT22;11573;51.334;3.244;2022-07-29T05:29:26;19.20;99.90
22813;DHT22;11573;51.334;3.244;2022-07-29T05:32:11;19.50;99.90
22813;DHT22;11573;51.334;3.244;2022-07-29T05:34:39;19.50;99.90
22813;DHT22;11573;51.334;3.244;2022-07-29T05:37:18;19.80;99.90
22813;DHT22;11573;51.334;3.244;2022-07-29T05:39:46;20.20;99.90
22813;DHT22;11573;51.334;3.244;2022-07-29T05:42:14;20.80;99.90
22813;DHT22;11573;51.334;3.244;2022-07-29T05:44:41;21.50;99.90
22813;DHT22;11573;51.334;3.244;2022-07-29T05:47:08;22.00;99.90
22813;DHT22;11573;51.334;3.244;2022-07-29T05:49:35;22.50;99.90
22813;DHT22;11573;51.334;3.244;2022-07-29T05:52:03;23.70;99.90
22813;DHT22;11573;51.334;3.244;2022-07-29T05:54:30;23.80;99.90
22813;DHT22;11573;51.334;3.244;2022-07-29T05:56:57;23.00;99.90
22813;DHT22;11573;51.334;3.244;2022-07-29T05:59:24;22.10;99.90
22813;DHT22;11573;51.334;3.244;2022-07-29T06:01:55;21.30;99.90
22813;DHT22;11573;51.334;3.244;2022-07-29T06:04:24;20.60;99.90
22813;DHT22;11573;51.334;3.244;2022-07-29T06:06:51;20.10;99.90
22813;DHT22;11573;51.334;3.244;2022-07-29T06:09:18;19.80;99.90
22813;DHT22;11573;51.334;3.244;2022-07-29T06:11:45;19.60;99.90
22813;DHT22;11573;51.334;3.244;2022-07-29T06:14:12;19.60;99.90
22813;DHT22;11573;51.334;3.244;2022-07-29T06:16:40;19.50;99.90
22813;DHT22;11573;51.334;3.244;2022-07-29T06:19:07;19.60;99.90
22813;DHT22;11573;51.334;3.244;2022-07-29T06:21:35;19.70;99.90
22813;DHT22;11573;51.334;3.244;2022-07-29T06:24:07;19.70;99.90
22813;DHT22;11573;51.334;3.244;2022-07-29T06:26:34;19.60;99.90
22813;DHT22;11573;51.334;3.244;2022-07-29T06:29:06;19.50;99.90
22813;DHT22;11573;51.334;3.244;2022-07-29T06:31:33;19.70;99.90
22813;DHT22;11573;51.334;3.244;2022-07-29T06:34:01;19.90;99.90
22813;DHT22;11573;51.334;3.244;2022-07-29T06:36:29;19.90;99.90
22813;DHT22;11573;51.334;3.244;2022-07-29T06:38:56;19.90;99.90
22813;DHT22;11573;51.334;3.244;2022-07-29T06:41:23;20.00;99.90
22813;DHT22;11573;51.334;3.244;2022-07-29T06:43:50;20.00;99.90
22813;DHT22;11573;51.334;3.244;2022-07-29T06:46:21;20.10;99.90
22813;DHT22;11573;51.334;3.244;2022-07-29T06:48:50;20.20;99.90
22813;DHT22;11573;51.334;3.244;2022-07-29T06:51:19;20.20;99.90
22813;DHT22;11573;51.334;3.244;2022-07-29T06:53:49;20.30;99.90
22813;DHT22;11573;51.334;3.244;2022-07-29T06:56:37;20.20;99.90
22813;DHT22;11573;51.334;3.244;2022-07-29T06:59:07;20.10;99.90
22813;DHT22;11573;51.334;3.244;2022-07-29T07:01:36;20.30;99.90
22813;DHT22;11573;51.334;3.244;2022-07-29T07:04:03;20.40;99.90
22813;DHT22;11573;51.334;3.244;2022-07-29T07:06:31;20.40;99.90
22813;DHT22;11573;51.334;3.244;2022-07-29T07:08:57;20.30;99.90
22813;DHT22;11573;51.334;3.244;2022-07-29T07:11:24;20.30;99.90
22813;DHT22;11573;51.334;3.244;2022-07-29T07:13:51;20.40;99.90
22813;DHT22;11573;51.334;3.244;2022-07-29T07:16:18;20.50;99.90
22813;DHT22;11573;51.334;3.244;2022-07-29T07:18:45;20.60;99.90
22813;DHT22;11573;51.334;3.244;2022-07-29T07:21:12;20.60;99.90
22813;DHT22;11573;51.334;3.244;2022-07-29T07:23:45;20.60;99.90
22813;DHT22;11573;51.334;3.244;2022-07-29T07:26:12;20.50;99.90
22813;DHT22;11573;51.334;3.244;2022-07-29T07:28:39;20.50;99.90
22813;DHT22;11573;51.334;3.244;2022-07-29T07:31:06;20.30;99.90
22813;DHT22;11573;51.334;3.244;2022-07-29T07:33:33;20.30;99.90
22813;DHT22;11573;51.334;3.244;2022-07-29T07:36:00;20.40;99.90
22813;DHT22;11573;51.334;3.244;2022-07-29T07:38:27;20.60;99.90
22813;DHT22;11573;51.334;3.244;2022-07-29T07:40:54;20.70;99.90
22813;DHT22;11573;51.334;3.244;2022-07-29T07:43:21;20.70;99.90
22813;DHT22;11573;51.334;3.244;2022-07-29T07:45:49;20.70;99.90
22813;DHT22;11573;51.334;3.244;2022-07-29T07:48:16;20.90;99.90
22813;DHT22;11573;51.334;3.244;2022-07-29T07:50:43;21.00;99.90
22813;DHT22;11573;51.334;3.244;2022-07-29T07:53:10;21.00;99.90
22813;DHT22;11573;51.334;3.244;2022-07-29T07:55:41;21.30;99.90
22813;DHT22;11573;51.334;3.244;2022-07-29T07:58:29;21.30;99.90
22813;DHT22;11573;51.334;3.244;2022-07-29T08:00:55;21.20;99.90
22813;DHT22;11573;51.334;3.244;2022-07-29T08:03:22;20.80;99.90
22813;DHT22;11573;51.334;3.244;2022-07-29T08:05:49;21.00;99.90
22813;DHT22;11573;51.334;3.244;2022-07-29T08:08:18;21.20;99.90
22813;DHT22;11573;51.334;3.244;2022-07-29T08:10:45;21.10;99.90
22813;DHT22;11573;51.334;3.244;2022-07-29T08:13:20;20.90;99.90
22813;DHT22;11573;51.334;3.244;2022-07-29T08:15:48;20.90;99.90
22813;DHT22;11573;51.334;3.244;2022-07-29T08:18:24;20.90;99.90
22813;DHT22;11573;51.334;3.244;2022-07-29T08:20:52;21.10;99.90
22813;DHT22;11573;51.334;3.244;2022-07-29T08:23:19;21.20;99.90
22813;DHT22;11573;51.334;3.244;2022-07-29T08:25:46;21.20;99.90
22813;DHT22;11573;51.334;3.244;2022-07-29T08:28:16;21.10;99.90
22813;DHT22;11573;51.334;3.244;2022-07-29T08:30:43;21.10;99.90
22813;DHT22;11573;51.334;3.244;2022-07-29T08:33:10;21.20;99.90
22813;DHT22;11573;51.334;3.244;2022-07-29T08:35:38;21.20;99.90
22813;DHT22;11573;51.334;3.244;2022-07-29T08:38:05;21.20;99.90
22813;DHT22;11573;51.334;3.244;2022-07-29T08:40:32;21.40;99.90
22813;DHT22;11573;51.334;3.244;2022-07-29T08:43:07;21.50;99.90
22813;DHT22;11573;51.334;3.244;2022-07-29T08:45:43;21.40;99.90
22813;DHT22;11573;51.334;3.244;2022-07-29T08:48:15;21.40;99.90
22813;DHT22;11573;51.334;3.244;2022-07-29T08:50:43;21.50;99.90
22813;DHT22;11573;51.334;3.244;2022-07-29T08:53:14;21.50;99.90
22813;DHT22;11573;51.334;3.244;2022-07-29T08:55:44;21.30;99.90
22813;DHT22;11573;51.334;3.244;2022-07-29T08:58:13;21.40;99.90
22813;DHT22;11573;51.334;3.244;2022-07-29T09:00:46;21.30;99.90
22813;DHT22;11573;51.334;3.244;2022-07-29T09:03:22;21.30;99.90
22813;DHT22;11573;51.334;3.244;2022-07-29T09:05:50;21.30;99.90
22813;DHT22;11573;51.334;3.244;2022-07-29T09:08:17;21.20;99.90
22813;DHT22;11573;51.334;3.244;2022-07-29T09:10:44;21.30;99.90
22813;DHT22;11573;51.334;3.244;2022-07-29T09:13:12;21.20;99.90
22813;DHT22;11573;51.334;3.244;2022-07-29T09:15:39;21.20;99.90
22813;DHT22;11573;51.334;3.244;2022-07-29T09:18:06;21.10;99.90
22813;DHT22;11573;51.334;3.244;2022-07-29T09:20:53;21.50;99.90
22813;DHT22;11573;51.334;3.244;2022-07-29T09:23:38;21.60;99.90
22813;DHT22;11573;51.334;3.244;2022-07-29T09:26:08;21.80;99.90
22813;DHT22;11573;51.334;3.244;2022-07-29T09:28:41;21.70;99.90
22813;DHT22;11573;51.334;3.244;2022-07-29T09:31:08;21.80;99.90
22813;DHT22;11573;51.334;3.244;2022-07-29T09:33:35;21.70;99.90
22813;DHT22;11573;51.334;3.244;2022-07-29T09:36:07;21.50;99.90
22813;DHT22;11573;51.334;3.244;2022-07-29T09:38:35;21.50;99.90
22813;DHT22;11573;51.334;3.244;2022-07-29T09:41:04;21.60;99.90
22813;DHT22;11573;51.334;3.244;2022-07-29T09:43:33;21.70;99.90
22813;DHT22;11573;51.334;3.244;2022-07-29T09:46:11;21.80;99.90
22813;DHT22;11573;51.334;3.244;2022-07-29T09:48:38;21.70;99.90
22813;DHT22;11573;51.334;3.244;2022-07-29T09:51:05;21.80;99.90
22813;DHT22;11573;51.334;3.244;2022-07-29T09:53:47;21.90;99.90
22813;DHT22;11573;51.334;3.244;2022-07-29T09:56:14;21.60;99.90
22813;DHT22;11573;51.334;3.244;2022-07-29T09:58:41;21.70;99.90
22813;DHT22;11573;51.334;3.244;2022-07-29T10:01:08;21.90;99.90
22813;DHT22;11573;51.334;3.244;2022-07-29T10:03:52;22.10;99.90
22813;DHT22;11573;51.334;3.244;2022-07-29T10:06:19;22.20;99.90
22813;DHT22;11573;51.334;3.244;2022-07-29T10:08:46;22.10;99.90
22813;DHT22;11573;51.334;3.244;2022-07-29T10:11:17;22.10;99.90
22813;DHT22;11573;51.334;3.244;2022-07-29T10:13:47;22.20;99.90
22813;DHT22;11573;51.334;3.244;2022-07-29T10:16:15;22.40;99.90
22813;DHT22;11573;51.334;3.244;2022-07-29T10:18:43;22.50;99.90
22813;DHT22;11573;51.334;3.244;2022-07-29T10:21:10;22.70;99.90
22813;DHT22;11573;51.334;3.244;2022-07-29T10:23:58;22.40;99.90
22813;DHT22;11573;51.334;3.244;2022-07-29T10:26:28;22.10;99.90
22813;DHT22;11573;51.334;3.244;2022-07-29T10:28:56;22.00;99.90
22813;DHT22;11573;51.334;3.244;2022-07-29T10:31:39;22.00;99.90
22813;DHT22;11573;51.334;3.244;2022-07-29T10:37:08;22.10;99.90
22813;DHT22;11573;51.334;3.244;2022-07-29T10:40:03;21.80;99.90
22813;DHT22;11573;51.334;3.244;2022-07-29T10:42:54;21.90;99.90
22813;DHT22;11573;51.334;3.244;2022-07-29T10:45:22;22.00;99.90
22813;DHT22;11573;51.334;3.244;2022-07-29T10:48:02;22.00;99.90
22813;DHT22;11573;51.334;3.244;2022-07-29T10:51:03;22.00;99.90
22813;DHT22;11573;51.334;3.244;2022-07-29T10:53:49;22.10;99.90
22813;DHT22;11573;51.334;3.244;2022-07-29T10:56:27;22.00;99.90
22813;DHT22;11573;51.334;3.244;2022-07-29T11:01:50;22.00;99.90
22813;DHT22;11573;51.334;3.244;2022-07-29T11:07:27;22.10;99.90
22813;DHT22;11573;51.334;3.244;2022-07-29T11:15:10;21.90;99.90
22813;DHT22;11573;51.334;3.244;2022-07-29T11:20:39;22.30;99.90
22813;DHT22;11573;51.334;3.244;2022-07-29T11:23:25;22.60;99.90
22813;DHT22;11573;51.334;3.244;2022-07-29T11:31:39;22.20;99.90
22813;DHT22;11573;51.334;3.244;2022-07-29T11:47:56;22.30;99.90
22813;DHT22;11573;51.334;3.244;2022-07-29T11:50:46;22.10;99.90
22813;DHT22;11573;51.334;3.244;2022-07-29T11:53:14;22.00;99.90
22813;DHT22;11573;51.334;3.244;2022-07-29T11:55:42;22.30;99.90
22813;DHT22;11573;51.334;3.244;2022-07-29T11:58:22;22.30;99.90
22813;DHT22;11573;51.334;3.244;2022-07-29T12:00:52;22.40;99.90
22813;DHT22;11573;51.334;3.244;2022-07-29T12:03:26;22.50;99.90
22813;DHT22;11573;51.334;3.244;2022-07-29T12:06:04;22.40;99.90
22813;DHT22;11573;51.334;3.244;2022-07-29T12:08:42;22.50;99.90
22813;DHT22;11573;51.334;3.244;2022-07-29T12:11:19;22.70;99.90
22813;DHT22;11573;51.334;3.244;2022-07-29T12:13:50;22.80;99.90
22813;DHT22;11573;51.334;3.244;2022-07-29T12:16:19;22.50;99.90
22813;DHT22;11573;51.334;3.244;2022-07-29T12:18:56;22.50;99.90
22813;DHT22;11573;51.334;3.244;2022-07-29T12:21:24;22.60;99.90
22813;DHT22;11573;51.334;3.244;2022-07-29T12:23:56;22.60;99.90
22813;DHT22;11573;51.334;3.244;2022-07-29T12:26:32;22.70;99.90
22813;DHT22;11573;51.334;3.244;2022-07-29T12:29:02;22.50;99.90
22813;DHT22;11573;51.334;3.244;2022-07-29T12:31:29;22.50;99.90
22813;DHT22;11573;51.334;3.244;2022-07-29T12:34:12;22.60;99.90
22813;DHT22;11573;51.334;3.244;2022-07-29T12:36:42;22.80;99.90
22813;DHT22;11573;51.334;3.244;2022-07-29T12:39:10;22.60;99.90
22813;DHT22;11573;51.334;3.244;2022-07-29T12:41:38;22.60;99.90
22813;DHT22;11573;51.334;3.244;2022-07-29T12:44:05;22.80;99.90
22813;DHT22;11573;51.334;3.244;2022-07-29T12:46:32;22.50;99.90
22813;DHT22;11573;51.334;3.244;2022-07-29T12:49:00;22.60;99.90
22813;DHT22;11573;51.334;3.244;2022-07-29T12:51:30;22.60;99.90
22813;DHT22;11573;51.334;3.244;2022-07-29T12:56:32;22.80;99.90
22813;DHT22;11573;51.334;3.244;2022-07-29T12:59:19;22.60;99.90
22813;DHT22;11573;51.334;3.244;2022-07-29T13:01:49;22.60;99.90
22813;DHT22;11573;51.334;3.244;2022-07-29T13:04:33;22.70;99.90
22813;DHT22;11573;51.334;3.244;2022-07-29T13:07:06;22.70;99.90
22813;DHT22;11573;51.334;3.244;2022-07-29T13:09:42;22.70;99.90
22813;DHT22;11573;51.334;3.244;2022-07-29T13:12:11;22.40;99.90
22813;DHT22;11573;51.334;3.244;2022-07-29T13:14:44;22.60;99.90
22813;DHT22;11573;51.334;3.244;2022-07-29T13:17:16;22.70;99.90
22813;DHT22;11573;51.334;3.244;2022-07-29T13:22:14;22.60;99.90
22813;DHT22;11573;51.334;3.244;2022-07-29T13:27:21;23.00;99.90
22813;DHT22;11573;51.334;3.244;2022-07-29T13:29:48;23.00;99.90
22813;DHT22;11573;51.334;3.244;2022-07-29T13:32:19;22.90;99.90
22813;DHT22;11573;51.334;3.244;2022-07-29T13:34:59;22.50;99.90
22813;DHT22;11573;51.334;3.244;2022-07-29T13:37:31;22.70;99.90
22813;DHT22;11573;51.334;3.244;2022-07-29T13:40:02;22.70;99.90
22813;DHT22;11573;51.334;3.244;2022-07-29T13:42:31;22.60;99.90
22813;DHT22;11573;51.334;3.244;2022-07-29T13:44:59;22.60;99.90
22813;DHT22;11573;51.334;3.244;2022-07-29T13:47:26;22.70;99.90
22813;DHT22;11573;51.334;3.244;2022-07-29T13:50:01;22.50;99.90
22813;DHT22;11573;51.334;3.244;2022-07-29T13:52:29;22.60;99.90
22813;DHT22;11573;51.334;3.244;2022-07-29T13:54:56;22.50;99.90
22813;DHT22;11573;51.334;3.244;2022-07-29T13:57:23;22.50;99.90
22813;DHT22;11573;51.334;3.244;2022-07-29T13:59:50;22.70;99.90
22813;DHT22;11573;51.334;3.244;2022-07-29T14:02:20;22.60;99.90
22813;DHT22;11573;51.334;3.244;2022-07-29T14:04:52;22.50;99.90
22813;DHT22;11573;51.334;3.244;2022-07-29T14:07:20;22.40;99.90
22813;DHT22;11573;51.334;3.244;2022-07-29T14:09:47;22.40;99.90
22813;DHT22;11573;51.334;3.244;2022-07-29T14:12:14;22.50;99.90
22813;DHT22;11573;51.334;3.244;2022-07-29T14:14:41;22.50;99.90
22813;DHT22;11573;51.334;3.244;2022-07-29T14:17:09;22.50;99.90
22813;DHT22;11573;51.334;3.244;2022-07-29T14:19:36;22.70;99.90
22813;DHT22;11573;51.334;3.244;2022-07-29T14:22:05;22.90;99.90
22813;DHT22;11573;51.334;3.244;2022-07-29T14:24:34;22.90;99.90
22813;DHT22;11573;51.334;3.244;2022-07-29T14:27:04;22.80;99.90
22813;DHT22;11573;51.334;3.244;2022-07-29T14:29:31;23.00;99.90
22813;DHT22;11573;51.334;3.244;2022-07-29T14:32:08;22.70;99.90
22813;DHT22;11573;51.334;3.244;2022-07-29T14:34:37;22.80;99.90
22813;DHT22;11573;51.334;3.244;2022-07-29T14:37:05;22.80;99.90
22813;DHT22;11573;51.334;3.244;2022-07-29T14:39:33;22.90;99.90
22813;DHT22;11573;51.334;3.244;2022-07-29T14:42:08;23.00;99.90
22813;DHT22;11573;51.334;3.244;2022-07-29T14:44:38;23.10;99.90
22813;DHT22;11573;51.334;3.244;2022-07-29T14:47:05;23.00;99.90
22813;DHT22;11573;51.334;3.244;2022-07-29T14:49:34;22.70;99.90
22813;DHT22;11573;51.334;3.244;2022-07-29T14:52:01;22.70;99.90
22813;DHT22;11573;51.334;3.244;2022-07-29T14:54:29;22.60;99.90
22813;DHT22;11573;51.334;3.244;2022-07-29T14:56:56;22.70;99.90
22813;DHT22;11573;51.334;3.244;2022-07-29T14:59:25;22.60;99.90
22813;DHT22;11573;51.334;3.244;2022-07-29T15:01:52;22.60;99.90
22813;DHT22;11573;51.334;3.244;2022-07-29T15:04:19;22.40;99.90
22813;DHT22;11573;51.334;3.244;2022-07-29T15:06:47;22.40;99.90
22813;DHT22;11573;51.334;3.244;2022-07-29T15:09:14;22.50;99.90
22813;DHT22;11573;51.334;3.244;2022-07-29T15:11:41;22.60;99.90
22813;DHT22;11573;51.334;3.244;2022-07-29T15:14:08;22.70;99.90
22813;DHT22;11573;51.334;3.244;2022-07-29T15:16:36;22.60;99.90
22813;DHT22;11573;51.334;3.244;2022-07-29T15:19:08;22.50;99.90
22813;DHT22;11573;51.334;3.244;2022-07-29T15:21:35;22.70;99.90
22813;DHT22;11573;51.334;3.244;2022-07-29T15:24:14;22.80;99.90
22813;DHT22;11573;51.334;3.244;2022-07-29T15:26:41;22.70;99.90
22813;DHT22;11573;51.334;3.244;2022-07-29T15:29:09;22.50;99.90
22813;DHT22;11573;51.334;3.244;2022-07-29T15:31:36;22.30;99.90
22813;DHT22;11573;51.334;3.244;2022-07-29T15:34:03;22.50;99.90
22813;DHT22;11573;51.334;3.244;2022-07-29T15:36:31;22.40;99.90
22813;DHT22;11573;51.334;3.244;2022-07-29T15:39:19;22.30;99.90
22813;DHT22;11573;51.334;3.244;2022-07-29T15:41:46;22.20;99.90
22813;DHT22;11573;51.334;3.244;2022-07-29T15:44:13;22.50;99.90
22813;DHT22;11573;51.334;3.244;2022-07-29T15:46:40;22.60;99.90
22813;DHT22;11573;51.334;3.244;2022-07-29T15:49:27;22.60;99.90
22813;DHT22;11573;51.334;3.244;2022-07-29T15:52:18;22.50;99.90
22813;DHT22;11573;51.334;3.244;2022-07-29T15:54:53;22.60;99.90
22813;DHT22;11573;51.334;3.244;2022-07-29T15:57:20;22.60;99.90
22813;DHT22;11573;51.334;3.244;2022-07-29T15:59:47;22.50;99.90
22813;DHT22;11573;51.334;3.244;2022-07-29T16:02:14;22.50;99.90
22813;DHT22;11573;51.334;3.244;2022-07-29T16:04:41;22.60;99.90
22813;DHT22;11573;51.334;3.244;2022-07-29T16:07:08;22.70;99.90
22813;DHT22;11573;51.334;3.244;2022-07-29T16:09:35;22.90;99.90
22813;DHT22;11573;51.334;3.244;2022-07-29T16:12:02;23.00;99.90
22813;DHT22;11573;51.334;3.244;2022-07-29T16:14:42;23.10;99.90
22813;DHT22;11573;51.334;3.244;2022-07-29T16:17:09;22.90;99.90
22813;DHT22;11573;51.334;3.244;2022-07-29T16:19:42;22.90;99.90
22813;DHT22;11573;51.334;3.244;2022-07-29T16:22:09;22.80;99.90
22813;DHT22;11573;51.334;3.244;2022-07-29T16:24:37;22.80;99.90
22813;DHT22;11573;51.334;3.244;2022-07-29T16:27:04;23.00;99.90
22813;DHT22;11573;51.334;3.244;2022-07-29T16:29:31;23.20;99.90
22813;DHT22;11573;51.334;3.244;2022-07-29T16:31:58;23.30;99.90
22813;DHT22;11573;51.334;3.244;2022-07-29T16:34:25;23.50;99.90
22813;DHT22;11573;51.334;3.244;2022-07-29T16:36:52;23.60;99.90
22813;DHT22;11573;51.334;3.244;2022-07-29T16:39:19;23.90;99.90
22813;DHT22;11573;51.334;3.244;2022-07-29T16:41:46;23.60;99.90
22813;DHT22;11573;51.334;3.244;2022-07-29T16:44:12;23.50;99.90
22813;DHT22;11573;51.334;3.244;2022-07-29T16:46:43;23.50;99.90